createdAt,value
2022-07-29T00:02:54.520Z,85.71
2022-07-29T00:07:57.799Z,85.97
2022-07-29T00:13:00.655Z,86.27
2022-07-29T00:18:03.661Z,86.28
2022-07-29T00:23:06.518Z,86.61
2022-07-29T00:28:09.538Z,86.62
2022-07-29T00:33:12.423Z,86.92
2022-07-29T00:38:16.826Z,87.14
2022-07-29T00:43:19.708Z,87.37
2022-07-29T00:48:22.586Z,87.69
2022-07-29T00:53:26.501Z,88.08
2022-07-29T00:58:30.154Z,88.08
2022-07-29T01:03:32.955Z,88.04
2022-07-29T01:08:37.072Z,88.07
2022-07-29T01:13:40.091Z,88.24
2022-07-29T01:18:49.364Z,88.28
2022-07-29T01:24:19.749Z,87.77
2022-07-29T01:29:25.567Z,87.40
2022-07-29T01:34:54.206Z,87.29
2022-07-29T01:40:00.318Z,87.56
2022-07-29T01:45:11.765Z,87.33
2022-07-29T01:50:18.914Z,86.96
2022-07-29T01:55:25.784Z,87.21
2022-07-29T02:00:29.488Z,87.58
2022-07-29T02:05:35.521Z,87.84
2022-07-29T02:10:41.672Z,88.35
2022-07-29T02:15:46.078Z,88.61
2022-07-29T02:20:53.936Z,88.63
2022-07-29T02:25:59.158Z,88.43
2022-07-29T02:31:03.946Z,88.00
2022-07-29T02:36:07.639Z,87.67
2022-07-29T02:41:14.620Z,87.76
2022-07-29T02:46:29.304Z,87.69
2022-07-29T02:51:44.829Z,87.29
2022-07-29T02:56:50.882Z,86.99
2022-07-29T03:01:56.397Z,87.20
2022-07-29T03:07:01.821Z,87.13
2022-07-29T03:12:06.796Z,86.80
2022-07-29T03:17:10.888Z,87.18
2022-07-29T03:22:14.788Z,87.46
2022-07-29T03:27:18.291Z,87.43
2022-07-29T03:32:24.028Z,86.94
2022-07-29T03:37:28.353Z,87.05
2022-07-29T03:42:37.146Z,86.79
2022-07-29T03:47:51.033Z,86.72
2022-07-29T03:52:55.515Z,85.74
2022-07-29T03:57:59.912Z,85.34
2022-07-29T04:03:05.185Z,84.83
2022-07-29T04:08:13.582Z,84.14
2022-07-29T04:13:16.474Z,83.45
2022-07-29T04:18:19.465Z,83.00
2022-07-29T04:23:22.285Z,82.33
2022-07-29T04:28:25.256Z,83.79
2022-07-29T04:33:28.217Z,84.09
2022-07-29T04:38:31.050Z,80.14
2022-07-29T04:43:36.930Z,70.55
2022-07-29T04:48:39.936Z,58.66
2022-07-29T04:53:42.868Z,50.90
2022-07-29T04:58:45.737Z,44.66
2022-07-29T05:03:49.255Z,40.71
2022-07-29T05:08:52.070Z,37.71
2022-07-29T05:13:54.971Z,34.25
2022-07-29T05:18:58.727Z,33.02
2022-07-29T05:24:02.390Z,35.99
2022-07-29T05:29:05.309Z,39.06
2022-07-29T05:34:08.105Z,42.74
2022-07-29T05:39:11.631Z,46.18
2022-07-29T05:44:15.220Z,48.50
2022-07-29T05:49:27.011Z,50.99
2022-07-29T05:54:30.176Z,52.95
2022-07-29T05:59:37.513Z,53.51
2022-07-29T06:04:40.436Z,54.94
2022-07-29T06:09:43.725Z,55.95
2022-07-29T06:14:49.848Z,56.45
2022-07-29T06:19:55.103Z,57.06
2022-07-29T06:24:58.017Z,56.71
2022-07-29T06:30:00.908Z,54.75
2022-07-29T06:35:31.906Z,53.45
2022-07-29T06:40:45.797Z,54.16
2022-07-29T06:45:49.188Z,49.47
2022-07-29T06:50:52.150Z,43.43
2022-07-29T06:55:55.014Z,39.24
2022-07-29T07:00:59.384Z,35.11
2022-07-29T07:06:02.926Z,33.67
2022-07-29T07:11:07.371Z,31.74
2022-07-29T07:16:10.308Z,30.72
2022-07-29T07:21:19.089Z,27.63
2022-07-29T07:26:22.535Z,26.32
2022-07-29T07:31:25.384Z,25.88
2022-07-29T07:36:28.934Z,25.42
2022-07-29T07:41:32.461Z,24.00
2022-07-29T07:46:36.071Z,22.95
2022-07-29T07:51:41.408Z,23.21
2022-07-29T07:56:44.442Z,23.13
2022-07-29T08:01:47.837Z,24.86
2022-07-29T08:06:59.787Z,24.67
2022-07-29T08:12:06.956Z,24.31
2022-07-29T08:17:10.634Z,25.02
2022-07-29T08:22:13.251Z,25.84
2022-07-29T08:27:41.805Z,25.48
2022-07-29T08:32:55.558Z,25.90
2022-07-29T08:37:59.761Z,26.50
2022-07-29T08:43:09.363Z,26.48
2022-07-29T08:48:16.490Z,27.25
2022-07-29T08:53:20.078Z,26.86
2022-07-29T08:58:25.561Z,28.01
2022-07-29T09:03:32.688Z,27.73
2022-07-29T09:08:35.732Z,29.02
2022-07-29T09:13:38.729Z,28.93
2022-07-29T09:18:44.033Z,29.30
2022-07-29T09:24:10.315Z,29.50
2022-07-29T09:29:22.291Z,29.41
2022-07-29T09:34:29.534Z,30.41
2022-07-29T09:39:37.473Z,31.15
2022-07-29T09:44:50.209Z,31.89
2022-07-29T09:49:54.824Z,32.05
2022-07-29T09:55:13.518Z,32.66
2022-07-29T10:00:19.825Z,34.27
2022-07-29T10:05:25.793Z,35.65
2022-07-29T10:10:36.808Z,36.24
2022-07-29T10:15:42.149Z,36.36
2022-07-29T10:20:45.236Z,36.57
2022-07-29T10:25:48.910Z,36.97
2022-07-29T10:30:55.350Z,37.10
2022-07-29T10:36:07.610Z,36.72
2022-07-29T10:41:27.420Z,37.75
2022-07-29T10:46:41.995Z,39.01
2022-07-29T10:52:10.427Z,39.06
2022-07-29T10:57:16.484Z,38.56
2022-07-29T11:08:16.871Z,38.34
2022-07-29T11:13:46.467Z,37.85
2022-07-29T11:19:14.526Z,37.89
2022-07-29T11:24:29.963Z,37.71
2022-07-29T11:29:33.731Z,37.11
2022-07-29T11:34:43.516Z,36.74
2022-07-29T11:39:48.623Z,36.58
2022-07-29T11:44:59.166Z,36.69
2022-07-29T11:50:14.401Z,36.79
2022-07-29T11:55:21.218Z,36.68
2022-07-29T12:00:35.262Z,37.75
2022-07-29T12:05:48.164Z,38.30
2022-07-29T12:10:52.715Z,38.56
2022-07-29T12:16:00.077Z,38.57
2022-07-29T12:21:04.997Z,38.32
2022-07-29T12:26:11.138Z,39.12
2022-07-29T12:31:43.829Z,39.49
2022-07-29T12:36:47.863Z,38.92
2022-07-29T12:41:50.807Z,38.73
2022-07-29T12:47:04.799Z,38.22
2022-07-29T12:52:29.272Z,37.60
2022-07-29T12:57:33.101Z,36.44
2022-07-29T13:02:37.798Z,37.22
2022-07-29T13:07:55.709Z,36.79
2022-07-29T13:13:06.492Z,37.34
2022-07-29T13:18:47.959Z,37.35
2022-07-29T13:23:50.979Z,37.28
2022-07-29T13:28:53.915Z,37.56
2022-07-29T13:33:57.512Z,36.83
2022-07-29T13:39:02.368Z,37.01
2022-07-29T13:44:05.537Z,37.40
2022-07-29T13:49:08.444Z,37.46
2022-07-29T13:54:11.288Z,37.95
2022-07-29T13:59:14.263Z,38.08
2022-07-29T14:04:17.110Z,38.08
2022-07-29T14:09:20.024Z,38.36
2022-07-29T14:14:23.158Z,38.36
2022-07-29T14:19:27.118Z,38.28
2022-07-29T14:24:30.383Z,38.38
2022-07-29T14:29:37.267Z,38.58
2022-07-29T14:34:41.338Z,38.74
2022-07-29T14:39:44.078Z,38.14
2022-07-29T14:44:48.882Z,37.66
2022-07-29T14:49:52.340Z,37.79
2022-07-29T14:54:55.319Z,37.96
2022-07-29T14:59:58.191Z,37.79
2022-07-29T15:05:00.984Z,38.14
2022-07-29T15:10:05.374Z,38.08
2022-07-29T15:15:11.251Z,38.38
2022-07-29T15:20:15.304Z,38.88
2022-07-29T15:25:18.619Z,38.87
2022-07-29T15:30:31.581Z,39.32
2022-07-29T15:35:40.470Z,39.39
2022-07-29T15:40:44.805Z,39.46
2022-07-29T15:46:06.331Z,39.26
2022-07-29T15:51:09.491Z,39.37
2022-07-29T15:56:13.111Z,39.08
2022-07-29T16:01:16.842Z,38.66
2022-07-29T16:06:21.276Z,38.74
2022-07-29T16:11:24.791Z,38.79
2022-07-29T16:16:28.440Z,38.92
2022-07-29T16:21:31.851Z,39.56
2022-07-29T16:26:35.772Z,39.98
2022-07-29T16:31:38.696Z,40.37
2022-07-29T16:36:45.985Z,40.60
2022-07-29T16:41:50.712Z,40.76
2022-07-29T16:46:55.994Z,41.17
2022-07-29T16:52:01.979Z,41.41
2022-07-29T16:57:04.959Z,41.97
2022-07-29T17:02:07.830Z,42.03
2022-07-29T17:07:10.887Z,42.30
2022-07-29T17:12:13.876Z,42.33
2022-07-29T17:17:20.665Z,42.37
2022-07-29T17:22:41.018Z,42.60
2022-07-29T17:27:43.902Z,42.70
2022-07-29T17:32:48.351Z,42.70
2022-07-29T17:37:51.851Z,42.93
2022-07-29T17:42:54.724Z,43.15
2022-07-29T17:47:57.594Z,43.52
2022-07-29T17:53:00.485Z,43.83
2022-07-29T17:58:03.886Z,44.12
2022-07-29T18:03:07.236Z,44.57
2022-07-29T18:08:11.067Z,44.94
2022-07-29T18:13:14.178Z,45.27
2022-07-29T18:18:18.742Z,45.80
2022-07-29T18:23:21.802Z,46.17
2022-07-29T18:28:24.676Z,46.67
2022-07-29T18:33:28.026Z,47.39
2022-07-29T18:38:31.012Z,47.89
2022-07-29T18:43:33.951Z,48.20
2022-07-29T18:48:36.759Z,48.93
2022-07-29T18:53:40.163Z,49.67
2022-07-29T18:58:42.947Z,50.81
2022-07-29T19:03:45.820Z,51.26
2022-07-29T19:08:48.677Z,51.56
2022-07-29T19:13:51.666Z,52.10
2022-07-29T19:18:54.958Z,52.40
2022-07-29T19:24:01.423Z,52.85
2022-07-29T19:29:11.725Z,53.08
2022-07-29T19:34:14.553Z,53.83
2022-07-29T19:39:17.404Z,54.71
2022-07-29T19:44:20.192Z,55.55
2022-07-29T19:49:23.026Z,56.69
2022-07-29T19:54:27.037Z,57.11
2022-07-29T19:59:29.910Z,57.83
2022-07-29T20:04:32.727Z,58.15
2022-07-29T20:09:36.866Z,58.52
2022-07-29T20:14:39.709Z,59.07
2022-07-29T20:19:42.841Z,59.34
2022-07-29T20:24:46.401Z,59.84
2022-07-29T20:29:49.237Z,60.29
2022-07-29T20:34:52.064Z,60.92
2022-07-29T20:39:54.897Z,61.18
2022-07-29T20:44:58.394Z,61.83
2022-07-29T20:50:01.187Z,62.16
2022-07-29T20:55:04.423Z,62.74
2022-07-29T21:00:09.237Z,63.00
2022-07-29T21:05:12.256Z,63.23
2022-07-29T21:10:15.556Z,63.54
2022-07-29T21:15:20.922Z,63.48
2022-07-29T21:20:23.665Z,63.54
2022-07-29T21:25:26.656Z,64.12
2022-07-29T21:30:29.588Z,64.30
2022-07-29T21:40:56.640Z,64.79
2022-07-29T21:46:00.951Z,65.23
2022-07-29T21:51:05.186Z,65.30
2022-07-29T21:56:13.066Z,65.94
2022-07-29T22:01:18.485Z,66.21
2022-07-29T22:06:21.382Z,66.65
2022-07-29T22:11:24.246Z,67.14
2022-07-29T22:16:27.201Z,67.33
2022-07-29T22:21:30.627Z,67.76
2022-07-29T22:26:34.019Z,68.18
2022-07-29T22:31:36.772Z,68.27
2022-07-29T22:36:41.196Z,68.77
2022-07-29T22:41:44.430Z,68.59
2022-07-29T22:46:47.315Z,68.78
2022-07-29T22:51:50.090Z,68.72
2022-07-29T22:56:53.272Z,68.91
2022-07-29T23:01:56.178Z,68.95
2022-07-29T23:06:59.157Z,69.10
2022-07-29T23:12:02.263Z,69.48
2022-07-29T23:17:05.925Z,69.68
2022-07-29T23:22:08.789Z,69.57
2022-07-29T23:27:11.570Z,70.17
2022-07-29T23:32:14.327Z,70.06
2022-07-29T23:37:17.422Z,70.15
2022-07-29T23:42:20.220Z,70.21
2022-07-29T23:47:23.168Z,70.44
2022-07-29T23:52:26.066Z,70.60
2022-07-29T23:57:28.968Z,70.51
